sensor_id;sensor_type;location;lat;lon;timestamp;P1;durP1;ratioP1;P2;durP2;ratioP2
3979;SDS011;2004;52.452;13.120;2023-12-14T00:01:24;205.50;;;18.90;;
3979;SDS011;2004;52.452;13.120;2023-12-14T00:09:16;212.97;;;21.20;;
3979;SDS011;2004;52.452;13.120;2023-12-14T00:17:06;223.00;;;27.25;;
3979;SDS011;2004;52.452;13.120;2023-12-14T00:24:57;211.63;;;21.50;;
3979;SDS011;2004;52.452;13.120;2023-12-14T00:32:47;210.67;;;22.20;;
3979;SDS011;2004;52.452;13.120;2023-12-14T00:40:38;205.87;;;20.80;;
3979;SDS011;2004;52.452;13.120;2023-12-14T00:48:28;212.07;;;22.27;;
3979;SDS011;2004;52.452;13.120;2023-12-14T00:56:19;212.17;;;21.60;;
3979;SDS011;2004;52.452;13.120;2023-12-14T01:04:09;216.30;;;22.27;;
3979;SDS011;2004;52.452;13.120;2023-12-14T01:12:00;213.27;;;22.13;;
3979;SDS011;2004;52.452;13.120;2023-12-14T01:19:50;213.57;;;21.60;;
3979;SDS011;2004;52.452;13.120;2023-12-14T01:27:41;210.80;;;22.13;;
3979;SDS011;2004;52.452;13.120;2023-12-14T01:35:32;207.67;;;21.77;;
3979;SDS011;2004;52.452;13.120;2023-12-14T01:43:22;214.80;;;22.77;;
3979;SDS011;2004;52.452;13.120;2023-12-14T01:51:12;207.20;;;21.37;;
3979;SDS011;2004;52.452;13.120;2023-12-14T01:59:03;206.60;;;20.70;;
3979;SDS011;2004;52.452;13.120;2023-12-14T02:06:53;205.10;;;19.13;;
3979;SDS011;2004;52.452;13.120;2023-12-14T02:14:44;196.93;;;16.53;;
3979;SDS011;2004;52.452;13.120;2023-12-14T02:22:40;195.07;;;15.13;;
3979;SDS011;2004;52.452;13.120;2023-12-14T02:30:41;197.07;;;16.77;;
3979;SDS011;2004;52.452;13.120;2023-12-14T02:38:32;196.17;;;16.53;;
3979;SDS011;2004;52.452;13.120;2023-12-14T02:46:23;201.80;;;18.77;;
3979;SDS011;2004;52.452;13.120;2023-12-14T02:54:13;206.90;;;19.70;;
3979;SDS011;2004;52.452;13.120;2023-12-14T03:02:04;210.40;;;21.43;;
3979;SDS011;2004;52.452;13.120;2023-12-14T03:09:54;209.07;;;21.47;;
3979;SDS011;2004;52.452;13.120;2023-12-14T03:17:45;209.70;;;20.87;;
3979;SDS011;2004;52.452;13.120;2023-12-14T03:25:35;210.83;;;21.63;;
3979;SDS011;2004;52.452;13.120;2023-12-14T03:33:26;213.57;;;22.20;;
3979;SDS011;2004;52.452;13.120;2023-12-14T03:41:16;217.10;;;22.43;;
3979;SDS011;2004;52.452;13.120;2023-12-14T03:49:07;227.63;;;28.00;;
3979;SDS011;2004;52.452;13.120;2023-12-14T03:56:58;226.80;;;28.30;;
3979;SDS011;2004;52.452;13.120;2023-12-14T04:04:50;212.98;;;25.80;;
3979;SDS011;2004;52.452;13.120;2023-12-14T04:12:40;213.48;;;25.95;;
3979;SDS011;2004;52.452;13.120;2023-12-14T04:20:31;220.37;;;21.70;;
3979;SDS011;2004;52.452;13.120;2023-12-14T04:28:21;206.00;;;19.43;;
3979;SDS011;2004;52.452;13.120;2023-12-14T04:36:12;205.43;;;18.70;;
3979;SDS011;2004;52.452;13.120;2023-12-14T04:44:03;199.00;;;19.10;;
3979;SDS011;2004;52.452;13.120;2023-12-14T04:51:54;199.47;;;19.33;;
3979;SDS011;2004;52.452;13.120;2023-12-14T04:59:44;217.98;;;25.52;;
3979;SDS011;2004;52.452;13.120;2023-12-14T05:07:35;205.87;;;21.67;;
3979;SDS011;2004;52.452;13.120;2023-12-14T05:15:25;209.00;;;21.47;;
3979;SDS011;2004;52.452;13.120;2023-12-14T05:31:44;207.50;;;20.23;;
3979;SDS011;2004;52.452;13.120;2023-12-14T05:39:35;206.27;;;20.27;;
3979;SDS011;2004;52.452;13.120;2023-12-14T05:47:26;205.27;;;21.10;;
3979;SDS011;2004;52.452;13.120;2023-12-14T05:55:17;206.07;;;21.70;;
3979;SDS011;2004;52.452;13.120;2023-12-14T06:03:11;210.27;;;22.00;;
3979;SDS011;2004;52.452;13.120;2023-12-14T06:11:02;202.40;;;19.67;;
3979;SDS011;2004;52.452;13.120;2023-12-14T06:18:53;202.10;;;19.50;;
3979;SDS011;2004;52.452;13.120;2023-12-14T06:26:44;209.57;;;20.77;;
3979;SDS011;2004;52.452;13.120;2023-12-14T06:34:35;209.67;;;19.17;;
3979;SDS011;2004;52.452;13.120;2023-12-14T06:42:27;203.90;;;20.00;;
3979;SDS011;2004;52.452;13.120;2023-12-14T06:50:18;205.60;;;19.40;;
3979;SDS011;2004;52.452;13.120;2023-12-14T06:58:08;207.53;;;19.37;;
3979;SDS011;2004;52.452;13.120;2023-12-14T07:06:01;207.97;;;21.20;;
3979;SDS011;2004;52.452;13.120;2023-12-14T07:13:52;207.37;;;20.50;;
3979;SDS011;2004;52.452;13.120;2023-12-14T07:21:43;207.40;;;19.90;;
3979;SDS011;2004;52.452;13.120;2023-12-14T07:29:33;205.70;;;21.07;;
3979;SDS011;2004;52.452;13.120;2023-12-14T07:37:24;202.37;;;19.30;;
3979;SDS011;2004;52.452;13.120;2023-12-14T07:45:14;206.47;;;19.40;;
3979;SDS011;2004;52.452;13.120;2023-12-14T07:53:05;200.50;;;19.00;;
3979;SDS011;2004;52.452;13.120;2023-12-14T08:00:56;201.07;;;19.67;;
3979;SDS011;2004;52.452;13.120;2023-12-14T08:08:47;199.27;;;18.77;;
3979;SDS011;2004;52.452;13.120;2023-12-14T08:16:37;200.83;;;18.83;;
3979;SDS011;2004;52.452;13.120;2023-12-14T08:24:28;198.63;;;18.20;;
3979;SDS011;2004;52.452;13.120;2023-12-14T08:32:18;207.13;;;21.23;;
3979;SDS011;2004;52.452;13.120;2023-12-14T08:40:09;210.13;;;22.63;;
3979;SDS011;2004;52.452;13.120;2023-12-14T08:48:00;210.20;;;22.97;;
3979;SDS011;2004;52.452;13.120;2023-12-14T08:55:51;214.23;;;24.57;;
3979;SDS011;2004;52.452;13.120;2023-12-14T09:03:41;215.40;;;24.30;;
3979;SDS011;2004;52.452;13.120;2023-12-14T09:11:32;212.07;;;24.20;;
3979;SDS011;2004;52.452;13.120;2023-12-14T09:19:25;217.37;;;25.63;;
3979;SDS011;2004;52.452;13.120;2023-12-14T09:27:15;216.07;;;27.00;;
3979;SDS011;2004;52.452;13.120;2023-12-14T09:35:07;216.57;;;26.57;;
3979;SDS011;2004;52.452;13.120;2023-12-14T09:42:57;221.87;;;28.00;;
3979;SDS011;2004;52.452;13.120;2023-12-14T09:50:48;217.80;;;24.97;;
3979;SDS011;2004;52.452;13.120;2023-12-14T09:58:41;218.37;;;26.90;;
3979;SDS011;2004;52.452;13.120;2023-12-14T10:06:32;220.13;;;27.13;;
3979;SDS011;2004;52.452;13.120;2023-12-14T10:14:24;221.80;;;27.90;;
3979;SDS011;2004;52.452;13.120;2023-12-14T10:22:15;220.40;;;27.63;;
3979;SDS011;2004;52.452;13.120;2023-12-14T10:30:07;227.10;;;28.90;;
3979;SDS011;2004;52.452;13.120;2023-12-14T10:38:03;228.17;;;29.37;;
3979;SDS011;2004;52.452;13.120;2023-12-14T10:45:55;226.60;;;30.40;;
3979;SDS011;2004;52.452;13.120;2023-12-14T10:53:46;225.03;;;28.63;;
3979;SDS011;2004;52.452;13.120;2023-12-14T11:01:39;228.77;;;32.63;;
3979;SDS011;2004;52.452;13.120;2023-12-14T11:09:30;220.47;;;27.17;;
3979;SDS011;2004;52.452;13.120;2023-12-14T11:17:21;229.13;;;31.07;;
3979;SDS011;2004;52.452;13.120;2023-12-14T11:25:12;221.50;;;29.53;;
3979;SDS011;2004;52.452;13.120;2023-12-14T11:33:04;232.30;;;28.67;;
3979;SDS011;2004;52.452;13.120;2023-12-14T11:40:54;225.07;;;30.00;;
3979;SDS011;2004;52.452;13.120;2023-12-14T11:48:45;219.07;;;28.50;;
3979;SDS011;2004;52.452;13.120;2023-12-14T11:56:38;225.00;;;30.77;;
3979;SDS011;2004;52.452;13.120;2023-12-14T12:04:29;220.80;;;29.53;;
3979;SDS011;2004;52.452;13.120;2023-12-14T12:12:20;223.30;;;29.23;;
3979;SDS011;2004;52.452;13.120;2023-12-14T12:20:11;221.03;;;29.03;;
3979;SDS011;2004;52.452;13.120;2023-12-14T12:28:02;216.90;;;28.27;;
3979;SDS011;2004;52.452;13.120;2023-12-14T12:35:54;221.60;;;28.73;;
3979;SDS011;2004;52.452;13.120;2023-12-14T12:43:44;215.70;;;27.83;;
3979;SDS011;2004;52.452;13.120;2023-12-14T12:51:35;218.27;;;27.10;;
3979;SDS011;2004;52.452;13.120;2023-12-14T12:59:26;218.77;;;27.07;;
3979;SDS011;2004;52.452;13.120;2023-12-14T13:07:16;218.77;;;28.10;;
3979;SDS011;2004;52.452;13.120;2023-12-14T13:15:08;215.67;;;27.87;;
3979;SDS011;2004;52.452;13.120;2023-12-14T13:22:59;215.40;;;26.20;;
3979;SDS011;2004;52.452;13.120;2023-12-14T13:30:50;216.23;;;26.77;;
3979;SDS011;2004;52.452;13.120;2023-12-14T13:38:41;213.70;;;24.97;;
3979;SDS011;2004;52.452;13.120;2023-12-14T13:46:32;213.47;;;26.50;;
3979;SDS011;2004;52.452;13.120;2023-12-14T13:54:23;215.57;;;27.10;;
3979;SDS011;2004;52.452;13.120;2023-12-14T14:02:14;218.33;;;25.43;;
3979;SDS011;2004;52.452;13.120;2023-12-14T14:10:04;213.97;;;26.07;;
3979;SDS011;2004;52.452;13.120;2023-12-14T14:17:55;215.10;;;24.80;;
3979;SDS011;2004;52.452;13.120;2023-12-14T14:25:47;209.93;;;24.60;;
3979;SDS011;2004;52.452;13.120;2023-12-14T14:33:37;218.40;;;24.80;;
3979;SDS011;2004;52.452;13.120;2023-12-14T14:41:28;213.37;;;24.00;;
3979;SDS011;2004;52.452;13.120;2023-12-14T14:49:19;207.27;;;23.43;;
3979;SDS011;2004;52.452;13.120;2023-12-14T14:57:09;207.17;;;23.27;;
3979;SDS011;2004;52.452;13.120;2023-12-14T15:05:00;211.60;;;23.00;;
3979;SDS011;2004;52.452;13.120;2023-12-14T15:12:51;210.20;;;23.97;;
3979;SDS011;2004;52.452;13.120;2023-12-14T15:20:41;214.47;;;24.40;;
3979;SDS011;2004;52.452;13.120;2023-12-14T15:28:32;209.07;;;24.00;;
3979;SDS011;2004;52.452;13.120;2023-12-14T15:36:23;211.13;;;24.00;;
3979;SDS011;2004;52.452;13.120;2023-12-14T15:44:13;218.07;;;24.43;;
3979;SDS011;2004;52.452;13.120;2023-12-14T15:52:04;211.13;;;25.27;;
3979;SDS011;2004;52.452;13.120;2023-12-14T15:59:54;208.60;;;25.10;;
3979;SDS011;2004;52.452;13.120;2023-12-14T16:07:45;210.13;;;25.07;;
3979;SDS011;2004;52.452;13.120;2023-12-14T16:15:36;218.93;;;29.97;;
3979;SDS011;2004;52.452;13.120;2023-12-14T16:23:27;214.67;;;26.30;;
3979;SDS011;2004;52.452;13.120;2023-12-14T16:31:17;211.03;;;25.50;;
3979;SDS011;2004;52.452;13.120;2023-12-14T16:39:08;208.47;;;24.43;;
3979;SDS011;2004;52.452;13.120;2023-12-14T16:47:01;208.57;;;24.60;;
3979;SDS011;2004;52.452;13.120;2023-12-14T16:54:52;209.90;;;23.97;;
3979;SDS011;2004;52.452;13.120;2023-12-14T17:02:43;219.30;;;29.17;;
3979;SDS011;2004;52.452;13.120;2023-12-14T17:10:34;204.97;;;23.70;;
3979;SDS011;2004;52.452;13.120;2023-12-14T17:18:25;210.63;;;24.73;;
3979;SDS011;2004;52.452;13.120;2023-12-14T17:26:15;213.47;;;24.07;;
3979;SDS011;2004;52.452;13.120;2023-12-14T17:34:06;210.67;;;23.73;;
3979;SDS011;2004;52.452;13.120;2023-12-14T17:41:57;214.27;;;25.63;;
3979;SDS011;2004;52.452;13.120;2023-12-14T17:49:48;207.30;;;23.60;;
3979;SDS011;2004;52.452;13.120;2023-12-14T17:57:38;213.50;;;25.73;;
3979;SDS011;2004;52.452;13.120;2023-12-14T18:05:29;211.40;;;24.20;;
3979;SDS011;2004;52.452;13.120;2023-12-14T18:13:20;217.53;;;26.67;;
3979;SDS011;2004;52.452;13.120;2023-12-14T18:21:11;209.37;;;24.57;;
3979;SDS011;2004;52.452;13.120;2023-12-14T18:29:02;209.40;;;23.87;;
3979;SDS011;2004;52.452;13.120;2023-12-14T18:36:53;207.23;;;23.53;;
3979;SDS011;2004;52.452;13.120;2023-12-14T18:44:43;209.60;;;25.43;;
3979;SDS011;2004;52.452;13.120;2023-12-14T18:52:34;219.80;;;27.87;;
3979;SDS011;2004;52.452;13.120;2023-12-14T19:00:27;208.10;;;23.80;;
3979;SDS011;2004;52.452;13.120;2023-12-14T19:08:18;219.70;;;26.80;;
3979;SDS011;2004;52.452;13.120;2023-12-14T19:16:09;208.37;;;23.07;;
3979;SDS011;2004;52.452;13.120;2023-12-14T19:24:00;217.57;;;24.83;;
3979;SDS011;2004;52.452;13.120;2023-12-14T19:31:51;212.80;;;23.10;;
3979;SDS011;2004;52.452;13.120;2023-12-14T19:39:45;208.63;;;23.80;;
3979;SDS011;2004;52.452;13.120;2023-12-14T19:47:36;217.33;;;27.30;;
3979;SDS011;2004;52.452;13.120;2023-12-14T19:55:29;215.43;;;25.40;;
3979;SDS011;2004;52.452;13.120;2023-12-14T20:03:19;206.63;;;23.67;;
3979;SDS011;2004;52.452;13.120;2023-12-14T20:11:14;212.47;;;23.93;;
3979;SDS011;2004;52.452;13.120;2023-12-14T20:19:06;205.57;;;21.50;;
3979;SDS011;2004;52.452;13.120;2023-12-14T20:26:57;217.17;;;24.90;;
3979;SDS011;2004;52.452;13.120;2023-12-14T20:34:48;212.00;;;22.43;;
3979;SDS011;2004;52.452;13.120;2023-12-14T20:42:39;222.25;;;28.40;;
3979;SDS011;2004;52.452;13.120;2023-12-14T20:50:30;207.43;;;23.40;;
3979;SDS011;2004;52.452;13.120;2023-12-14T20:58:23;210.23;;;23.30;;
3979;SDS011;2004;52.452;13.120;2023-12-14T21:06:14;208.80;;;22.90;;
3979;SDS011;2004;52.452;13.120;2023-12-14T21:14:04;208.97;;;24.13;;
3979;SDS011;2004;52.452;13.120;2023-12-14T21:21:55;224.83;;;30.00;;
3979;SDS011;2004;52.452;13.120;2023-12-14T21:29:47;209.23;;;23.00;;
3979;SDS011;2004;52.452;13.120;2023-12-14T21:37:38;207.43;;;21.80;;
3979;SDS011;2004;52.452;13.120;2023-12-14T21:45:30;207.90;;;22.63;;
3979;SDS011;2004;52.452;13.120;2023-12-14T21:53:21;205.67;;;21.97;;
3979;SDS011;2004;52.452;13.120;2023-12-14T22:01:12;206.43;;;21.17;;
3979;SDS011;2004;52.452;13.120;2023-12-14T22:09:03;201.00;;;20.53;;
3979;SDS011;2004;52.452;13.120;2023-12-14T22:16:54;212.47;;;24.47;;
3979;SDS011;2004;52.452;13.120;2023-12-14T22:24:45;209.83;;;22.27;;
3979;SDS011;2004;52.452;13.120;2023-12-14T22:32:36;204.63;;;21.60;;
3979;SDS011;2004;52.452;13.120;2023-12-14T22:40:27;212.67;;;25.20;;
3979;SDS011;2004;52.452;13.120;2023-12-14T22:48:17;208.57;;;23.00;;
3979;SDS011;2004;52.452;13.120;2023-12-14T22:56:08;215.30;;;24.87;;
3979;SDS011;2004;52.452;13.120;2023-12-14T23:03:59;208.57;;;22.47;;
3979;SDS011;2004;52.452;13.120;2023-12-14T23:11:51;208.20;;;21.83;;
3979;SDS011;2004;52.452;13.120;2023-12-14T23:19:41;207.83;;;21.43;;
3979;SDS011;2004;52.452;13.120;2023-12-14T23:27:32;204.37;;;21.03;;
3979;SDS011;2004;52.452;13.120;2023-12-14T23:35:23;215.80;;;21.80;;
3979;SDS011;2004;52.452;13.120;2023-12-14T23:43:13;211.87;;;23.67;;
3979;SDS011;2004;52.452;13.120;2023-12-14T23:51:04;215.17;;;24.07;;
3979;SDS011;2004;52.452;13.120;2023-12-14T23:58:55;210.20;;;23.77;;
